sensor_id;sensor_type;location;lat;lon;timestamp;P1;durP1;ratioP1;P2;durP2;ratioP2
81306;SDS011;70775;50.846;3.224;2023-08-30T00:01:07;9.73;;;6.07;;
81306;SDS011;70775;50.846;3.224;2023-08-30T00:03:33;9.20;;;6.43;;
81306;SDS011;70775;50.846;3.224;2023-08-30T00:06:05;11.10;;;6.05;;
81306;SDS011;70775;50.846;3.224;2023-08-30T00:08:32;12.05;;;6.55;;
81306;SDS011;70775;50.846;3.224;2023-08-30T00:10:58;9.07;;;6.30;;
81306;SDS011;70775;50.846;3.224;2023-08-30T00:13:26;10.75;;;5.85;;
81306;SDS011;70775;50.846;3.224;2023-08-30T00:15:54;11.35;;;5.43;;
81306;SDS011;70775;50.846;3.224;2023-08-30T00:18:20;12.73;;;5.88;;
81306;SDS011;70775;50.846;3.224;2023-08-30T00:20:46;12.27;;;5.65;;
81306;SDS011;70775;50.846;3.224;2023-08-30T00:23:12;8.88;;;4.80;;
81306;SDS011;70775;50.846;3.224;2023-08-30T00:25:38;11.35;;;5.43;;
81306;SDS011;70775;50.846;3.224;2023-08-30T00:28:03;8.85;;;4.75;;
81306;SDS011;70775;50.846;3.224;2023-08-30T00:30:29;8.55;;;5.07;;
81306;SDS011;70775;50.846;3.224;2023-08-30T00:32:55;9.90;;;4.72;;
81306;SDS011;70775;50.846;3.224;2023-08-30T00:35:20;7.65;;;4.68;;
81306;SDS011;70775;50.846;3.224;2023-08-30T00:37:46;10.18;;;4.50;;
81306;SDS011;70775;50.846;3.224;2023-08-30T00:40:11;8.48;;;4.32;;
81306;SDS011;70775;50.846;3.224;2023-08-30T00:42:37;8.95;;;4.30;;
81306;SDS011;70775;50.846;3.224;2023-08-30T00:45:03;9.77;;;4.40;;
81306;SDS011;70775;50.846;3.224;2023-08-30T00:47:29;7.43;;;4.18;;
81306;SDS011;70775;50.846;3.224;2023-08-30T00:49:55;9.10;;;4.32;;
81306;SDS011;70775;50.846;3.224;2023-08-30T00:52:20;8.77;;;4.57;;
81306;SDS011;70775;50.846;3.224;2023-08-30T00:54:46;7.93;;;4.57;;
81306;SDS011;70775;50.846;3.224;2023-08-30T00:59:57;8.50;;;4.68;;
81306;SDS011;70775;50.846;3.224;2023-08-30T01:02:23;8.05;;;4.53;;
81306;SDS011;70775;50.846;3.224;2023-08-30T01:04:49;9.38;;;4.57;;
81306;SDS011;70775;50.846;3.224;2023-08-30T01:07:15;9.70;;;4.65;;
81306;SDS011;70775;50.846;3.224;2023-08-30T01:09:40;7.13;;;4.45;;
81306;SDS011;70775;50.846;3.224;2023-08-30T01:13:08;5.78;;;3.65;;
81306;SDS011;70775;50.846;3.224;2023-08-30T01:15:11;7.75;;;3.80;;
81306;SDS011;70775;50.846;3.224;2023-08-30T01:17:48;7.00;;;4.97;;
81306;SDS011;70775;50.846;3.224;2023-08-30T01:20:16;6.93;;;3.55;;
81306;SDS011;70775;50.846;3.224;2023-08-30T01:28:52;9.80;;;3.95;;
81306;SDS011;70775;50.846;3.224;2023-08-30T01:31:23;9.05;;;3.58;;
81306;SDS011;70775;50.846;3.224;2023-08-30T01:33:50;6.32;;;3.88;;
81306;SDS011;70775;50.846;3.224;2023-08-30T01:36:16;6.97;;;3.97;;
81306;SDS011;70775;50.846;3.224;2023-08-30T01:38:42;10.75;;;4.82;;
81306;SDS011;70775;50.846;3.224;2023-08-30T01:41:09;8.65;;;4.10;;
81306;SDS011;70775;50.846;3.224;2023-08-30T01:43:34;8.80;;;4.10;;
81306;SDS011;70775;50.846;3.224;2023-08-30T01:46:02;8.52;;;4.93;;
81306;SDS011;70775;50.846;3.224;2023-08-30T01:48:31;8.93;;;4.85;;
81306;SDS011;70775;50.846;3.224;2023-08-30T01:54:20;9.35;;;5.25;;
81306;SDS011;70775;50.846;3.224;2023-08-30T01:56:50;12.13;;;5.40;;
81306;SDS011;70775;50.846;3.224;2023-08-30T01:59:15;10.68;;;5.95;;
81306;SDS011;70775;50.846;3.224;2023-08-30T02:01:41;9.85;;;5.43;;
81306;SDS011;70775;50.846;3.224;2023-08-30T02:04:06;9.52;;;5.38;;
81306;SDS011;70775;50.846;3.224;2023-08-30T02:06:34;10.18;;;4.28;;
81306;SDS011;70775;50.846;3.224;2023-08-30T02:14:58;8.80;;;3.70;;
81306;SDS011;70775;50.846;3.224;2023-08-30T02:17:25;11.90;;;4.45;;
81306;SDS011;70775;50.846;3.224;2023-08-30T02:19:51;10.35;;;4.22;;
81306;SDS011;70775;50.846;3.224;2023-08-30T02:22:20;8.88;;;3.78;;
81306;SDS011;70775;50.846;3.224;2023-08-30T02:24:46;8.13;;;4.30;;
81306;SDS011;70775;50.846;3.224;2023-08-30T02:27:12;8.93;;;3.85;;
81306;SDS011;70775;50.846;3.224;2023-08-30T02:29:37;10.13;;;3.63;;
81306;SDS011;70775;50.846;3.224;2023-08-30T02:32:03;7.20;;;4.00;;
81306;SDS011;70775;50.846;3.224;2023-08-30T02:34:29;14.65;;;4.95;;
81306;SDS011;70775;50.846;3.224;2023-08-30T02:36:54;9.02;;;3.53;;
81306;SDS011;70775;50.846;3.224;2023-08-30T02:39:20;5.43;;;3.60;;
81306;SDS011;70775;50.846;3.224;2023-08-30T02:41:46;7.28;;;3.55;;
81306;SDS011;70775;50.846;3.224;2023-08-30T02:44:12;6.65;;;3.10;;
81306;SDS011;70775;50.846;3.224;2023-08-30T02:46:37;9.60;;;3.30;;
81306;SDS011;70775;50.846;3.224;2023-08-30T02:49:03;7.20;;;3.40;;
81306;SDS011;70775;50.846;3.224;2023-08-30T02:51:29;8.65;;;3.28;;
81306;SDS011;70775;50.846;3.224;2023-08-30T02:53:55;10.60;;;3.65;;
81306;SDS011;70775;50.846;3.224;2023-08-30T02:56:20;8.18;;;3.83;;
81306;SDS011;70775;50.846;3.224;2023-08-30T02:58:46;9.15;;;3.78;;
81306;SDS011;70775;50.846;3.224;2023-08-30T03:01:11;6.97;;;3.45;;
81306;SDS011;70775;50.846;3.224;2023-08-30T03:03:37;6.90;;;3.80;;
81306;SDS011;70775;50.846;3.224;2023-08-30T03:06:02;7.28;;;3.72;;
81306;SDS011;70775;50.846;3.224;2023-08-30T03:08:28;9.05;;;4.35;;
81306;SDS011;70775;50.846;3.224;2023-08-30T03:10:54;9.18;;;4.40;;
81306;SDS011;70775;50.846;3.224;2023-08-30T03:13:20;9.55;;;4.15;;
81306;SDS011;70775;50.846;3.224;2023-08-30T03:15:45;10.00;;;4.70;;
81306;SDS011;70775;50.846;3.224;2023-08-30T03:18:11;11.35;;;4.93;;
81306;SDS011;70775;50.846;3.224;2023-08-30T03:20:36;8.52;;;4.65;;
81306;SDS011;70775;50.846;3.224;2023-08-30T03:23:02;10.20;;;5.15;;
81306;SDS011;70775;50.846;3.224;2023-08-30T03:25:28;9.45;;;5.43;;
81306;SDS011;70775;50.846;3.224;2023-08-30T03:27:55;10.65;;;5.07;;
81306;SDS011;70775;50.846;3.224;2023-08-30T03:30:20;11.40;;;5.88;;
81306;SDS011;70775;50.846;3.224;2023-08-30T03:32:46;10.98;;;6.13;;
81306;SDS011;70775;50.846;3.224;2023-08-30T03:35:11;12.40;;;6.28;;
81306;SDS011;70775;50.846;3.224;2023-08-30T03:37:39;10.73;;;5.65;;
81306;SDS011;70775;50.846;3.224;2023-08-30T03:40:05;11.30;;;5.75;;
81306;SDS011;70775;50.846;3.224;2023-08-30T03:42:32;13.20;;;6.40;;
81306;SDS011;70775;50.846;3.224;2023-08-30T03:44:57;12.02;;;6.55;;
81306;SDS011;70775;50.846;3.224;2023-08-30T03:47:23;12.50;;;6.95;;
81306;SDS011;70775;50.846;3.224;2023-08-30T03:49:49;16.27;;;8.52;;
81306;SDS011;70775;50.846;3.224;2023-08-30T03:52:14;12.93;;;7.35;;
81306;SDS011;70775;50.846;3.224;2023-08-30T03:54:40;13.45;;;7.85;;
81306;SDS011;70775;50.846;3.224;2023-08-30T03:57:05;13.07;;;7.40;;
81306;SDS011;70775;50.846;3.224;2023-08-30T03:59:31;13.50;;;8.02;;
81306;SDS011;70775;50.846;3.224;2023-08-30T04:01:58;13.32;;;8.27;;
81306;SDS011;70775;50.846;3.224;2023-08-30T04:04:23;13.55;;;8.00;;
81306;SDS011;70775;50.846;3.224;2023-08-30T04:06:49;13.25;;;6.88;;
81306;SDS011;70775;50.846;3.224;2023-08-30T04:09:15;11.10;;;7.28;;
81306;SDS011;70775;50.846;3.224;2023-08-30T04:11:40;11.27;;;7.13;;
81306;SDS011;70775;50.846;3.224;2023-08-30T04:14:07;12.77;;;7.72;;
81306;SDS011;70775;50.846;3.224;2023-08-30T04:16:32;12.50;;;7.90;;
81306;SDS011;70775;50.846;3.224;2023-08-30T04:18:58;14.70;;;8.30;;
81306;SDS011;70775;50.846;3.224;2023-08-30T04:21:24;13.70;;;8.27;;
81306;SDS011;70775;50.846;3.224;2023-08-30T04:23:49;15.82;;;8.82;;
81306;SDS011;70775;50.846;3.224;2023-08-30T04:26:15;12.50;;;6.65;;
81306;SDS011;70775;50.846;3.224;2023-08-30T04:28:40;12.30;;;7.43;;
81306;SDS011;70775;50.846;3.224;2023-08-30T04:34:30;12.52;;;7.25;;
81306;SDS011;70775;50.846;3.224;2023-08-30T04:36:56;11.70;;;6.60;;
81306;SDS011;70775;50.846;3.224;2023-08-30T04:39:22;10.45;;;5.88;;
81306;SDS011;70775;50.846;3.224;2023-08-30T04:41:47;13.82;;;6.70;;
81306;SDS011;70775;50.846;3.224;2023-08-30T04:44:13;12.25;;;7.13;;
81306;SDS011;70775;50.846;3.224;2023-08-30T04:46:38;16.08;;;7.93;;
81306;SDS011;70775;50.846;3.224;2023-08-30T04:49:04;12.23;;;6.65;;
81306;SDS011;70775;50.846;3.224;2023-08-30T04:51:30;15.07;;;7.57;;
81306;SDS011;70775;50.846;3.224;2023-08-30T04:53:55;12.52;;;6.72;;
81306;SDS011;70775;50.846;3.224;2023-08-30T04:56:21;11.88;;;6.50;;
81306;SDS011;70775;50.846;3.224;2023-08-30T04:58:46;11.02;;;6.55;;
81306;SDS011;70775;50.846;3.224;2023-08-30T05:01:12;14.05;;;6.82;;
81306;SDS011;70775;50.846;3.224;2023-08-30T05:03:40;8.70;;;4.93;;
81306;SDS011;70775;50.846;3.224;2023-08-30T05:06:06;15.27;;;8.10;;
81306;SDS011;70775;50.846;3.224;2023-08-30T05:08:38;13.18;;;7.10;;
81306;SDS011;70775;50.846;3.224;2023-08-30T05:11:19;12.63;;;7.85;;
81306;SDS011;70775;50.846;3.224;2023-08-30T05:13:44;13.60;;;7.43;;
81306;SDS011;70775;50.846;3.224;2023-08-30T05:16:10;13.18;;;7.70;;
81306;SDS011;70775;50.846;3.224;2023-08-30T05:18:36;14.32;;;8.02;;
81306;SDS011;70775;50.846;3.224;2023-08-30T05:21:01;14.90;;;8.35;;
81306;SDS011;70775;50.846;3.224;2023-08-30T05:26:01;14.23;;;8.50;;
81306;SDS011;70775;50.846;3.224;2023-08-30T05:28:27;15.32;;;8.98;;
81306;SDS011;70775;50.846;3.224;2023-08-30T05:30:52;14.50;;;8.65;;
81306;SDS011;70775;50.846;3.224;2023-08-30T05:33:18;16.02;;;7.90;;
81306;SDS011;70775;50.846;3.224;2023-08-30T05:35:48;13.45;;;8.25;;
81306;SDS011;70775;50.846;3.224;2023-08-30T05:38:14;13.43;;;7.72;;
81306;SDS011;70775;50.846;3.224;2023-08-30T05:40:39;15.88;;;8.85;;
81306;SDS011;70775;50.846;3.224;2023-08-30T05:43:08;16.85;;;9.27;;
81306;SDS011;70775;50.846;3.224;2023-08-30T05:45:33;16.30;;;8.63;;
81306;SDS011;70775;50.846;3.224;2023-08-30T05:48:13;14.30;;;9.00;;
81306;SDS011;70775;50.846;3.224;2023-08-30T05:50:38;15.52;;;9.38;;
81306;SDS011;70775;50.846;3.224;2023-08-30T05:53:06;15.82;;;9.23;;
81306;SDS011;70775;50.846;3.224;2023-08-30T05:55:33;16.20;;;9.45;;
81306;SDS011;70775;50.846;3.224;2023-08-30T05:57:58;14.70;;;8.65;;
81306;SDS011;70775;50.846;3.224;2023-08-30T06:00:24;15.75;;;8.65;;
81306;SDS011;70775;50.846;3.224;2023-08-30T06:02:51;16.13;;;9.35;;
81306;SDS011;70775;50.846;3.224;2023-08-30T06:05:17;15.60;;;9.48;;
81306;SDS011;70775;50.846;3.224;2023-08-30T06:10:55;14.93;;;7.15;;
81306;SDS011;70775;50.846;3.224;2023-08-30T06:15:55;14.60;;;8.23;;
81306;SDS011;70775;50.846;3.224;2023-08-30T06:18:21;13.77;;;7.90;;
81306;SDS011;70775;50.846;3.224;2023-08-30T06:21:04;13.20;;;7.43;;
81306;SDS011;70775;50.846;3.224;2023-08-30T06:23:29;13.60;;;8.13;;
81306;SDS011;70775;50.846;3.224;2023-08-30T06:25:56;13.98;;;7.80;;
81306;SDS011;70775;50.846;3.224;2023-08-30T06:28:22;13.90;;;7.72;;
81306;SDS011;70775;50.846;3.224;2023-08-30T06:30:48;13.48;;;8.35;;
81306;SDS011;70775;50.846;3.224;2023-08-30T06:33:14;14.68;;;8.25;;
81306;SDS011;70775;50.846;3.224;2023-08-30T06:35:40;14.73;;;8.43;;
81306;SDS011;70775;50.846;3.224;2023-08-30T06:38:06;14.32;;;8.57;;
81306;SDS011;70775;50.846;3.224;2023-08-30T06:40:32;15.00;;;8.85;;
81306;SDS011;70775;50.846;3.224;2023-08-30T06:42:59;12.50;;;7.82;;
81306;SDS011;70775;50.846;3.224;2023-08-30T06:45:24;17.27;;;9.60;;
81306;SDS011;70775;50.846;3.224;2023-08-30T06:47:50;14.45;;;7.93;;
81306;SDS011;70775;50.846;3.224;2023-08-30T06:50:17;16.42;;;10.23;;
81306;SDS011;70775;50.846;3.224;2023-08-30T06:52:43;15.63;;;9.65;;
81306;SDS011;70775;50.846;3.224;2023-08-30T06:55:09;15.50;;;9.38;;
81306;SDS011;70775;50.846;3.224;2023-08-30T06:57:35;15.20;;;9.65;;
81306;SDS011;70775;50.846;3.224;2023-08-30T07:00:00;16.08;;;10.25;;
81306;SDS011;70775;50.846;3.224;2023-08-30T07:02:32;17.95;;;10.20;;
81306;SDS011;70775;50.846;3.224;2023-08-30T07:05:02;14.60;;;10.20;;
81306;SDS011;70775;50.846;3.224;2023-08-30T07:07:30;17.00;;;10.80;;
81306;SDS011;70775;50.846;3.224;2023-08-30T07:09:56;18.33;;;9.98;;
81306;SDS011;70775;50.846;3.224;2023-08-30T07:12:22;16.00;;;9.98;;
81306;SDS011;70775;50.846;3.224;2023-08-30T07:14:47;15.63;;;10.18;;
81306;SDS011;70775;50.846;3.224;2023-08-30T07:17:13;16.42;;;9.65;;
81306;SDS011;70775;50.846;3.224;2023-08-30T07:19:38;17.20;;;10.82;;
81306;SDS011;70775;50.846;3.224;2023-08-30T07:22:04;16.30;;;10.43;;
81306;SDS011;70775;50.846;3.224;2023-08-30T07:24:30;15.13;;;9.57;;
81306;SDS011;70775;50.846;3.224;2023-08-30T07:26:55;15.80;;;9.48;;
81306;SDS011;70775;50.846;3.224;2023-08-30T07:29:21;15.70;;;10.55;;
81306;SDS011;70775;50.846;3.224;2023-08-30T07:31:47;19.15;;;11.07;;
81306;SDS011;70775;50.846;3.224;2023-08-30T07:34:12;13.90;;;8.77;;
81306;SDS011;70775;50.846;3.224;2023-08-30T07:36:38;14.60;;;10.27;;
81306;SDS011;70775;50.846;3.224;2023-08-30T07:39:04;16.30;;;9.93;;
81306;SDS011;70775;50.846;3.224;2023-08-30T07:41:29;14.82;;;9.38;;
81306;SDS011;70775;50.846;3.224;2023-08-30T07:43:56;14.20;;;9.15;;
81306;SDS011;70775;50.846;3.224;2023-08-30T07:46:21;14.85;;;9.40;;
81306;SDS011;70775;50.846;3.224;2023-08-30T07:48:47;15.45;;;8.57;;
81306;SDS011;70775;50.846;3.224;2023-08-30T07:51:13;13.82;;;8.70;;
81306;SDS011;70775;50.846;3.224;2023-08-30T07:53:38;13.00;;;8.60;;
81306;SDS011;70775;50.846;3.224;2023-08-30T07:56:04;14.15;;;7.43;;
81306;SDS011;70775;50.846;3.224;2023-08-30T07:58:30;11.57;;;6.18;;
81306;SDS011;70775;50.846;3.224;2023-08-30T08:00:55;9.07;;;6.07;;
81306;SDS011;70775;50.846;3.224;2023-08-30T08:03:21;11.68;;;6.15;;
81306;SDS011;70775;50.846;3.224;2023-08-30T08:05:47;12.30;;;6.43;;
81306;SDS011;70775;50.846;3.224;2023-08-30T08:08:12;11.70;;;6.32;;
81306;SDS011;70775;50.846;3.224;2023-08-30T08:10:39;12.85;;;6.43;;
81306;SDS011;70775;50.846;3.224;2023-08-30T08:13:06;13.23;;;5.57;;
81306;SDS011;70775;50.846;3.224;2023-08-30T08:15:32;14.18;;;5.93;;
81306;SDS011;70775;50.846;3.224;2023-08-30T08:17:58;16.83;;;6.00;;
81306;SDS011;70775;50.846;3.224;2023-08-30T08:20:25;11.38;;;5.53;;
81306;SDS011;70775;50.846;3.224;2023-08-30T08:22:51;12.82;;;4.72;;
81306;SDS011;70775;50.846;3.224;2023-08-30T08:25:17;11.23;;;5.10;;
81306;SDS011;70775;50.846;3.224;2023-08-30T08:27:42;12.60;;;5.38;;
81306;SDS011;70775;50.846;3.224;2023-08-30T08:30:08;12.70;;;5.03;;
81306;SDS011;70775;50.846;3.224;2023-08-30T08:32:35;11.70;;;4.25;;
81306;SDS011;70775;50.846;3.224;2023-08-30T08:35:01;12.90;;;4.68;;
81306;SDS011;70775;50.846;3.224;2023-08-30T08:37:27;12.35;;;4.32;;
81306;SDS011;70775;50.846;3.224;2023-08-30T08:39:53;9.48;;;4.63;;
81306;SDS011;70775;50.846;3.224;2023-08-30T08:42:19;12.98;;;4.68;;
81306;SDS011;70775;50.846;3.224;2023-08-30T08:44:50;11.63;;;4.20;;
81306;SDS011;70775;50.846;3.224;2023-08-30T08:47:18;10.50;;;3.33;;
81306;SDS011;70775;50.846;3.224;2023-08-30T08:49:45;8.98;;;2.65;;
81306;SDS011;70775;50.846;3.224;2023-08-30T08:52:15;12.63;;;3.70;;
81306;SDS011;70775;50.846;3.224;2023-08-30T08:54:41;15.32;;;3.90;;
81306;SDS011;70775;50.846;3.224;2023-08-30T08:57:08;13.20;;;4.63;;
81306;SDS011;70775;50.846;3.224;2023-08-30T08:59:34;14.25;;;3.67;;
81306;SDS011;70775;50.846;3.224;2023-08-30T09:02:00;7.78;;;2.97;;
81306;SDS011;70775;50.846;3.224;2023-08-30T09:04:26;14.30;;;3.55;;
81306;SDS011;70775;50.846;3.224;2023-08-30T09:06:57;11.88;;;3.08;;
81306;SDS011;70775;50.846;3.224;2023-08-30T09:09:26;8.90;;;3.08;;
81306;SDS011;70775;50.846;3.224;2023-08-30T09:11:52;7.07;;;2.80;;
81306;SDS011;70775;50.846;3.224;2023-08-30T09:14:18;8.60;;;3.13;;
81306;SDS011;70775;50.846;3.224;2023-08-30T09:17:00;10.73;;;3.17;;
81306;SDS011;70775;50.846;3.224;2023-08-30T09:19:27;11.35;;;3.65;;
81306;SDS011;70775;50.846;3.224;2023-08-30T09:21:54;7.70;;;2.70;;
81306;SDS011;70775;50.846;3.224;2023-08-30T09:24:23;8.15;;;2.80;;
81306;SDS011;70775;50.846;3.224;2023-08-30T09:26:53;10.32;;;2.83;;
81306;SDS011;70775;50.846;3.224;2023-08-30T09:29:20;12.25;;;2.63;;
81306;SDS011;70775;50.846;3.224;2023-08-30T09:31:50;7.65;;;2.15;;
81306;SDS011;70775;50.846;3.224;2023-08-30T09:34:16;9.18;;;2.33;;
81306;SDS011;70775;50.846;3.224;2023-08-30T09:36:42;8.63;;;2.60;;
81306;SDS011;70775;50.846;3.224;2023-08-30T09:39:12;6.90;;;2.42;;
81306;SDS011;70775;50.846;3.224;2023-08-30T09:41:43;9.88;;;2.38;;
81306;SDS011;70775;50.846;3.224;2023-08-30T09:46:40;8.52;;;2.50;;
81306;SDS011;70775;50.846;3.224;2023-08-30T09:49:14;8.73;;;2.60;;
81306;SDS011;70775;50.846;3.224;2023-08-30T09:51:40;7.75;;;2.20;;
81306;SDS011;70775;50.846;3.224;2023-08-30T09:54:11;10.73;;;2.40;;
81306;SDS011;70775;50.846;3.224;2023-08-30T09:56:38;8.52;;;2.22;;
81306;SDS011;70775;50.846;3.224;2023-08-30T09:59:06;8.63;;;2.25;;
81306;SDS011;70775;50.846;3.224;2023-08-30T10:01:32;8.50;;;2.22;;
81306;SDS011;70775;50.846;3.224;2023-08-30T10:03:59;9.98;;;2.92;;
81306;SDS011;70775;50.846;3.224;2023-08-30T10:06:27;9.88;;;3.13;;
81306;SDS011;70775;50.846;3.224;2023-08-30T10:08:54;7.88;;;2.13;;
81306;SDS011;70775;50.846;3.224;2023-08-30T10:11:21;7.30;;;2.15;;
81306;SDS011;70775;50.846;3.224;2023-08-30T10:13:48;9.73;;;2.33;;
81306;SDS011;70775;50.846;3.224;2023-08-30T10:16:22;9.73;;;2.80;;
81306;SDS011;70775;50.846;3.224;2023-08-30T10:18:50;11.02;;;2.83;;
81306;SDS011;70775;50.846;3.224;2023-08-30T10:21:31;5.40;;;1.90;;
81306;SDS011;70775;50.846;3.224;2023-08-30T10:23:57;6.35;;;2.38;;
81306;SDS011;70775;50.846;3.224;2023-08-30T10:26:24;5.55;;;2.30;;
81306;SDS011;70775;50.846;3.224;2023-08-30T10:28:53;7.05;;;2.30;;
81306;SDS011;70775;50.846;3.224;2023-08-30T10:37:28;8.43;;;2.88;;
81306;SDS011;70775;50.846;3.224;2023-08-30T10:39:59;7.97;;;3.17;;
81306;SDS011;70775;50.846;3.224;2023-08-30T10:45:01;13.38;;;2.95;;
81306;SDS011;70775;50.846;3.224;2023-08-30T10:47:32;11.00;;;2.70;;
81306;SDS011;70775;50.846;3.224;2023-08-30T10:50:06;8.80;;;2.50;;
81306;SDS011;70775;50.846;3.224;2023-08-30T10:52:35;8.67;;;2.93;;
81306;SDS011;70775;50.846;3.224;2023-08-30T10:55:21;7.65;;;2.45;;
81306;SDS011;70775;50.846;3.224;2023-08-30T10:58:06;7.15;;;2.35;;
81306;SDS011;70775;50.846;3.224;2023-08-30T11:00:32;5.80;;;2.05;;
81306;SDS011;70775;50.846;3.224;2023-08-30T11:05:56;9.00;;;2.22;;
81306;SDS011;70775;50.846;3.224;2023-08-30T11:08:26;10.20;;;2.25;;
81306;SDS011;70775;50.846;3.224;2023-08-30T11:13:53;5.75;;;1.83;;
81306;SDS011;70775;50.846;3.224;2023-08-30T11:16:22;8.55;;;2.40;;
81306;SDS011;70775;50.846;3.224;2023-08-30T11:18:48;8.85;;;2.00;;
81306;SDS011;70775;50.846;3.224;2023-08-30T11:21:14;5.80;;;1.95;;
81306;SDS011;70775;50.846;3.224;2023-08-30T11:23:40;5.13;;;1.77;;
81306;SDS011;70775;50.846;3.224;2023-08-30T11:26:07;5.90;;;1.80;;
81306;SDS011;70775;50.846;3.224;2023-08-30T11:28:32;11.82;;;2.35;;
81306;SDS011;70775;50.846;3.224;2023-08-30T11:31:00;8.93;;;2.30;;
81306;SDS011;70775;50.846;3.224;2023-08-30T11:33:30;7.85;;;2.40;;
81306;SDS011;70775;50.846;3.224;2023-08-30T11:35:56;9.13;;;2.38;;
81306;SDS011;70775;50.846;3.224;2023-08-30T11:38:23;7.03;;;2.10;;
81306;SDS011;70775;50.846;3.224;2023-08-30T11:40:49;10.60;;;2.85;;
81306;SDS011;70775;50.846;3.224;2023-08-30T11:43:16;6.88;;;3.00;;
81306;SDS011;70775;50.846;3.224;2023-08-30T11:45:42;7.03;;;3.50;;
81306;SDS011;70775;50.846;3.224;2023-08-30T11:48:07;6.97;;;2.60;;
81306;SDS011;70775;50.846;3.224;2023-08-30T11:50:33;6.68;;;2.80;;
81306;SDS011;70775;50.846;3.224;2023-08-30T11:53:00;7.13;;;3.38;;
81306;SDS011;70775;50.846;3.224;2023-08-30T11:55:27;8.95;;;3.97;;
81306;SDS011;70775;50.846;3.224;2023-08-30T11:57:53;7.22;;;4.28;;
81306;SDS011;70775;50.846;3.224;2023-08-30T12:00:19;10.15;;;4.43;;
81306;SDS011;70775;50.846;3.224;2023-08-30T12:02:45;14.45;;;5.80;;
81306;SDS011;70775;50.846;3.224;2023-08-30T12:05:15;12.65;;;5.15;;
81306;SDS011;70775;50.846;3.224;2023-08-30T12:07:41;13.27;;;4.85;;
81306;SDS011;70775;50.846;3.224;2023-08-30T12:10:08;10.27;;;4.78;;
81306;SDS011;70775;50.846;3.224;2023-08-30T12:15:28;9.45;;;4.60;;
81306;SDS011;70775;50.846;3.224;2023-08-30T12:21:08;8.02;;;4.20;;
81306;SDS011;70775;50.846;3.224;2023-08-30T12:23:33;8.13;;;4.32;;
81306;SDS011;70775;50.846;3.224;2023-08-30T12:26:00;8.48;;;4.53;;
81306;SDS011;70775;50.846;3.224;2023-08-30T12:28:26;10.23;;;4.68;;
81306;SDS011;70775;50.846;3.224;2023-08-30T12:30:52;9.35;;;4.35;;
81306;SDS011;70775;50.846;3.224;2023-08-30T12:33:19;7.53;;;4.15;;
81306;SDS011;70775;50.846;3.224;2023-08-30T12:35:44;6.53;;;3.00;;
81306;SDS011;70775;50.846;3.224;2023-08-30T12:38:10;6.40;;;2.28;;
81306;SDS011;70775;50.846;3.224;2023-08-30T12:40:55;5.43;;;2.15;;
81306;SDS011;70775;50.846;3.224;2023-08-30T12:43:21;8.50;;;2.40;;
81306;SDS011;70775;50.846;3.224;2023-08-30T12:45:54;4.60;;;2.08;;
81306;SDS011;70775;50.846;3.224;2023-08-30T12:48:20;3.20;;;1.80;;
81306;SDS011;70775;50.846;3.224;2023-08-30T12:50:46;7.03;;;1.95;;
81306;SDS011;70775;50.846;3.224;2023-08-30T12:53:13;5.20;;;1.30;;
81306;SDS011;70775;50.846;3.224;2023-08-30T12:55:41;6.93;;;1.63;;
81306;SDS011;70775;50.846;3.224;2023-08-30T12:58:07;4.38;;;1.65;;
81306;SDS011;70775;50.846;3.224;2023-08-30T13:00:33;6.78;;;1.70;;
81306;SDS011;70775;50.846;3.224;2023-08-30T13:02:59;7.38;;;1.65;;
81306;SDS011;70775;50.846;3.224;2023-08-30T13:05:42;6.47;;;1.58;;
81306;SDS011;70775;50.846;3.224;2023-08-30T13:10:50;7.72;;;2.28;;
81306;SDS011;70775;50.846;3.224;2023-08-30T13:13:16;6.45;;;1.77;;
81306;SDS011;70775;50.846;3.224;2023-08-30T13:15:42;8.25;;;2.17;;
81306;SDS011;70775;50.846;3.224;2023-08-30T13:18:07;4.03;;;1.30;;
81306;SDS011;70775;50.846;3.224;2023-08-30T13:20:37;4.47;;;1.33;;
81306;SDS011;70775;50.846;3.224;2023-08-30T13:23:03;5.95;;;1.40;;
81306;SDS011;70775;50.846;3.224;2023-08-30T13:25:29;7.47;;;1.75;;
81306;SDS011;70775;50.846;3.224;2023-08-30T13:27:55;7.35;;;1.58;;
81306;SDS011;70775;50.846;3.224;2023-08-30T13:30:20;5.75;;;1.58;;
81306;SDS011;70775;50.846;3.224;2023-08-30T13:32:46;5.57;;;1.40;;
81306;SDS011;70775;50.846;3.224;2023-08-30T13:35:11;4.88;;;1.50;;
81306;SDS011;70775;50.846;3.224;2023-08-30T13:40:42;2.83;;;1.02;;
81306;SDS011;70775;50.846;3.224;2023-08-30T13:43:09;5.20;;;1.60;;
81306;SDS011;70775;50.846;3.224;2023-08-30T13:45:35;4.07;;;1.23;;
81306;SDS011;70775;50.846;3.224;2023-08-30T13:51:25;4.53;;;1.58;;
81306;SDS011;70775;50.846;3.224;2023-08-30T13:53:51;7.07;;;1.80;;
81306;SDS011;70775;50.846;3.224;2023-08-30T13:56:18;4.97;;;1.20;;
81306;SDS011;70775;50.846;3.224;2023-08-30T13:58:44;5.32;;;1.35;;
81306;SDS011;70775;50.846;3.224;2023-08-30T14:01:10;5.70;;;1.48;;
81306;SDS011;70775;50.846;3.224;2023-08-30T14:06:23;5.18;;;1.58;;
81306;SDS011;70775;50.846;3.224;2023-08-30T14:08:48;5.63;;;1.73;;
81306;SDS011;70775;50.846;3.224;2023-08-30T14:11:14;3.97;;;1.42;;
81306;SDS011;70775;50.846;3.224;2023-08-30T14:13:40;5.30;;;1.60;;
81306;SDS011;70775;50.846;3.224;2023-08-30T14:16:06;3.90;;;1.40;;
81306;SDS011;70775;50.846;3.224;2023-08-30T14:18:33;6.35;;;1.70;;
81306;SDS011;70775;50.846;3.224;2023-08-30T14:23:29;5.78;;;1.80;;
81306;SDS011;70775;50.846;3.224;2023-08-30T14:25:56;4.57;;;1.55;;
81306;SDS011;70775;50.846;3.224;2023-08-30T14:28:25;4.60;;;2.03;;
81306;SDS011;70775;50.846;3.224;2023-08-30T14:34:13;6.00;;;1.73;;
81306;SDS011;70775;50.846;3.224;2023-08-30T14:36:39;4.43;;;1.50;;
81306;SDS011;70775;50.846;3.224;2023-08-30T14:39:08;4.78;;;1.60;;
81306;SDS011;70775;50.846;3.224;2023-08-30T14:41:34;4.57;;;1.80;;
81306;SDS011;70775;50.846;3.224;2023-08-30T14:44:02;2.90;;;1.77;;
81306;SDS011;70775;50.846;3.224;2023-08-30T14:46:32;4.50;;;1.67;;
81306;SDS011;70775;50.846;3.224;2023-08-30T14:48:58;3.95;;;2.28;;
81306;SDS011;70775;50.846;3.224;2023-08-30T14:51:36;6.15;;;2.00;;
81306;SDS011;70775;50.846;3.224;2023-08-30T14:54:02;5.15;;;2.00;;
81306;SDS011;70775;50.846;3.224;2023-08-30T14:56:27;4.63;;;2.20;;
81306;SDS011;70775;50.846;3.224;2023-08-30T15:01:44;5.68;;;2.00;;
81306;SDS011;70775;50.846;3.224;2023-08-30T15:04:10;6.80;;;2.47;;
81306;SDS011;70775;50.846;3.224;2023-08-30T15:06:35;6.75;;;2.33;;
81306;SDS011;70775;50.846;3.224;2023-08-30T15:09:02;7.50;;;2.50;;
81306;SDS011;70775;50.846;3.224;2023-08-30T15:11:28;6.07;;;2.63;;
81306;SDS011;70775;50.846;3.224;2023-08-30T15:13:53;7.72;;;2.30;;
81306;SDS011;70775;50.846;3.224;2023-08-30T15:16:19;6.68;;;2.50;;
81306;SDS011;70775;50.846;3.224;2023-08-30T15:18:58;7.18;;;2.75;;
81306;SDS011;70775;50.846;3.224;2023-08-30T15:21:23;5.05;;;2.58;;
81306;SDS011;70775;50.846;3.224;2023-08-30T15:23:49;5.00;;;2.35;;
81306;SDS011;70775;50.846;3.224;2023-08-30T15:26:15;5.90;;;2.53;;
81306;SDS011;70775;50.846;3.224;2023-08-30T15:31:27;5.50;;;1.90;;
81306;SDS011;70775;50.846;3.224;2023-08-30T15:33:53;6.72;;;2.38;;
81306;SDS011;70775;50.846;3.224;2023-08-30T15:39:13;4.93;;;2.25;;
81306;SDS011;70775;50.846;3.224;2023-08-30T15:41:44;2.97;;;2.10;;
81306;SDS011;70775;50.846;3.224;2023-08-30T15:44:10;4.20;;;2.03;;
81306;SDS011;70775;50.846;3.224;2023-08-30T15:46:36;4.85;;;2.08;;
81306;SDS011;70775;50.846;3.224;2023-08-30T15:49:01;5.88;;;2.30;;
81306;SDS011;70775;50.846;3.224;2023-08-30T15:51:27;5.22;;;2.15;;
81306;SDS011;70775;50.846;3.224;2023-08-30T15:54:01;6.18;;;2.47;;
81306;SDS011;70775;50.846;3.224;2023-08-30T15:58:52;5.97;;;2.15;;
81306;SDS011;70775;50.846;3.224;2023-08-30T16:01:18;3.70;;;2.15;;